sensor_id;sensor_type;location;lat;lon;timestamp;temperature;humidity
24207;DHT22;12351;52.284;9.160;2023-06-22T00:01:32;21.20;99.90
24207;DHT22;12351;52.284;9.160;2023-06-22T00:04:19;21.20;99.90
24207;DHT22;12351;52.284;9.160;2023-06-22T00:07:07;21.10;99.90
24207;DHT22;12351;52.284;9.160;2023-06-22T00:09:55;21.10;99.90
24207;DHT22;12351;52.284;9.160;2023-06-22T00:12:42;21.10;99.90
24207;DHT22;12351;52.284;9.160;2023-06-22T00:15:29;21.00;99.90
24207;DHT22;12351;52.284;9.160;2023-06-22T00:18:17;21.00;99.90
24207;DHT22;12351;52.284;9.160;2023-06-22T00:21:04;20.90;99.90
24207;DHT22;12351;52.284;9.160;2023-06-22T00:23:52;20.80;1.00
24207;DHT22;12351;52.284;9.160;2023-06-22T00:26:39;20.70;1.00
24207;DHT22;12351;52.284;9.160;2023-06-22T00:29:27;20.80;1.00
24207;DHT22;12351;52.284;9.160;2023-06-22T00:32:15;20.80;1.00
24207;DHT22;12351;52.284;9.160;2023-06-22T00:35:04;20.80;1.00
24207;DHT22;12351;52.284;9.160;2023-06-22T00:37:53;20.60;1.00
24207;DHT22;12351;52.284;9.160;2023-06-22T00:40:43;20.60;1.00
24207;DHT22;12351;52.284;9.160;2023-06-22T00:43:31;20.60;1.00
24207;DHT22;12351;52.284;9.160;2023-06-22T00:46:18;20.70;1.00
24207;DHT22;12351;52.284;9.160;2023-06-22T00:49:06;20.70;1.00
24207;DHT22;12351;52.284;9.160;2023-06-22T00:51:53;20.70;1.00
24207;DHT22;12351;52.284;9.160;2023-06-22T00:54:41;20.60;1.00
24207;DHT22;12351;52.284;9.160;2023-06-22T00:57:31;20.50;1.00
24207;DHT22;12351;52.284;9.160;2023-06-22T01:00:20;20.50;1.00
24207;DHT22;12351;52.284;9.160;2023-06-22T01:03:09;20.50;1.00
24207;DHT22;12351;52.284;9.160;2023-06-22T01:06:00;20.50;1.00
24207;DHT22;12351;52.284;9.160;2023-06-22T01:08:51;20.40;1.00
24207;DHT22;12351;52.284;9.160;2023-06-22T01:11:40;20.40;1.00
24207;DHT22;12351;52.284;9.160;2023-06-22T01:14:34;20.30;1.00
24207;DHT22;12351;52.284;9.160;2023-06-22T01:17:20;20.30;1.00
24207;DHT22;12351;52.284;9.160;2023-06-22T01:20:09;20.30;1.00
24207;DHT22;12351;52.284;9.160;2023-06-22T01:28:43;20.30;1.00
24207;DHT22;12351;52.284;9.160;2023-06-22T01:31:31;20.30;1.00
24207;DHT22;12351;52.284;9.160;2023-06-22T01:34:21;20.30;1.00
24207;DHT22;12351;52.284;9.160;2023-06-22T01:37:11;20.30;1.00
24207;DHT22;12351;52.284;9.160;2023-06-22T01:39:59;20.30;1.00
24207;DHT22;12351;52.284;9.160;2023-06-22T01:42:47;20.30;1.00
24207;DHT22;12351;52.284;9.160;2023-06-22T01:45:35;20.30;1.00
24207;DHT22;12351;52.284;9.160;2023-06-22T01:48:24;20.30;1.00
24207;DHT22;12351;52.284;9.160;2023-06-22T01:51:12;20.20;1.00
24207;DHT22;12351;52.284;9.160;2023-06-22T01:54:01;20.20;1.00
24207;DHT22;12351;52.284;9.160;2023-06-22T01:56:48;20.20;1.00
24207;DHT22;12351;52.284;9.160;2023-06-22T02:02:19;20.20;1.00
24207;DHT22;12351;52.284;9.160;2023-06-22T02:05:10;20.10;1.00
24207;DHT22;12351;52.284;9.160;2023-06-22T02:08:02;20.10;1.00
24207;DHT22;12351;52.284;9.160;2023-06-22T02:10:50;20.10;1.00
24207;DHT22;12351;52.284;9.160;2023-06-22T02:13:38;20.10;1.00
24207;DHT22;12351;52.284;9.160;2023-06-22T02:16:27;20.10;1.00
24207;DHT22;12351;52.284;9.160;2023-06-22T02:19:15;20.10;1.00
24207;DHT22;12351;52.284;9.160;2023-06-22T02:22:04;20.10;1.00
24207;DHT22;12351;52.284;9.160;2023-06-22T02:24:53;20.10;1.00
24207;DHT22;12351;52.284;9.160;2023-06-22T02:27:41;20.00;1.00
24207;DHT22;12351;52.284;9.160;2023-06-22T02:30:27;20.00;1.00
24207;DHT22;12351;52.284;9.160;2023-06-22T02:33:14;20.00;1.00
24207;DHT22;12351;52.284;9.160;2023-06-22T02:36:03;19.90;1.00
24207;DHT22;12351;52.284;9.160;2023-06-22T02:38:51;19.90;1.00
24207;DHT22;12351;52.284;9.160;2023-06-22T02:41:40;19.90;1.00
24207;DHT22;12351;52.284;9.160;2023-06-22T02:44:27;19.90;1.00
24207;DHT22;12351;52.284;9.160;2023-06-22T02:47:16;19.80;1.00
24207;DHT22;12351;52.284;9.160;2023-06-22T02:50:05;19.80;1.00
24207;DHT22;12351;52.284;9.160;2023-06-22T02:52:52;19.80;1.00
24207;DHT22;12351;52.284;9.160;2023-06-22T02:55:40;19.70;1.00
24207;DHT22;12351;52.284;9.160;2023-06-22T02:58:28;19.60;1.00
24207;DHT22;12351;52.284;9.160;2023-06-22T03:01:16;19.70;1.00
24207;DHT22;12351;52.284;9.160;2023-06-22T03:04:07;19.70;1.00
24207;DHT22;12351;52.284;9.160;2023-06-22T03:06:56;19.70;1.00
24207;DHT22;12351;52.284;9.160;2023-06-22T03:09:45;19.60;1.00
24207;DHT22;12351;52.284;9.160;2023-06-22T03:12:32;19.60;1.00
24207;DHT22;12351;52.284;9.160;2023-06-22T03:15:20;19.60;1.00
24207;DHT22;12351;52.284;9.160;2023-06-22T03:18:08;19.60;1.00
24207;DHT22;12351;52.284;9.160;2023-06-22T03:20:56;19.60;1.00
24207;DHT22;12351;52.284;9.160;2023-06-22T03:23:44;19.60;1.00
24207;DHT22;12351;52.284;9.160;2023-06-22T03:26:31;19.60;1.00
24207;DHT22;12351;52.284;9.160;2023-06-22T03:29:19;19.60;1.00
24207;DHT22;12351;52.284;9.160;2023-06-22T03:32:07;19.60;1.00
24207;DHT22;12351;52.284;9.160;2023-06-22T03:34:55;19.50;1.00
24207;DHT22;12351;52.284;9.160;2023-06-22T03:37:45;19.50;1.00
24207;DHT22;12351;52.284;9.160;2023-06-22T03:40:33;19.50;1.00
24207;DHT22;12351;52.284;9.160;2023-06-22T03:43:21;19.60;1.00
24207;DHT22;12351;52.284;9.160;2023-06-22T03:46:09;19.50;1.00
24207;DHT22;12351;52.284;9.160;2023-06-22T03:48:57;19.50;1.00
24207;DHT22;12351;52.284;9.160;2023-06-22T03:51:45;19.60;1.00
24207;DHT22;12351;52.284;9.160;2023-06-22T03:54:33;19.50;1.00
24207;DHT22;12351;52.284;9.160;2023-06-22T03:57:21;19.50;1.00
24207;DHT22;12351;52.284;9.160;2023-06-22T04:00:09;19.40;1.00
24207;DHT22;12351;52.284;9.160;2023-06-22T04:02:58;19.50;1.00
24207;DHT22;12351;52.284;9.160;2023-06-22T04:05:45;19.60;1.00
24207;DHT22;12351;52.284;9.160;2023-06-22T04:08:33;19.60;1.00
24207;DHT22;12351;52.284;9.160;2023-06-22T04:11:20;19.60;1.00
24207;DHT22;12351;52.284;9.160;2023-06-22T04:14:08;19.60;1.00
24207;DHT22;12351;52.284;9.160;2023-06-22T04:16:57;19.60;1.00
24207;DHT22;12351;52.284;9.160;2023-06-22T04:19:44;19.70;1.00
24207;DHT22;12351;52.284;9.160;2023-06-22T04:22:32;19.70;1.00
24207;DHT22;12351;52.284;9.160;2023-06-22T04:25:21;19.80;1.00
24207;DHT22;12351;52.284;9.160;2023-06-22T04:28:09;19.80;1.00
24207;DHT22;12351;52.284;9.160;2023-06-22T04:30:58;19.80;1.00
24207;DHT22;12351;52.284;9.160;2023-06-22T04:33:48;19.90;1.00
24207;DHT22;12351;52.284;9.160;2023-06-22T04:36:39;19.90;1.00
24207;DHT22;12351;52.284;9.160;2023-06-22T04:39:28;19.90;1.00
24207;DHT22;12351;52.284;9.160;2023-06-22T04:42:16;19.90;1.00
24207;DHT22;12351;52.284;9.160;2023-06-22T04:45:05;20.00;1.00
24207;DHT22;12351;52.284;9.160;2023-06-22T04:47:53;20.00;1.00
24207;DHT22;12351;52.284;9.160;2023-06-22T04:50:42;20.00;1.00
24207;DHT22;12351;52.284;9.160;2023-06-22T04:53:31;20.00;1.00
24207;DHT22;12351;52.284;9.160;2023-06-22T04:56:20;20.10;1.00
24207;DHT22;12351;52.284;9.160;2023-06-22T04:59:08;20.20;1.00
24207;DHT22;12351;52.284;9.160;2023-06-22T05:02:00;20.20;1.00
24207;DHT22;12351;52.284;9.160;2023-06-22T05:04:47;20.20;1.00
24207;DHT22;12351;52.284;9.160;2023-06-22T05:07:37;20.30;1.00
24207;DHT22;12351;52.284;9.160;2023-06-22T05:10:26;20.40;1.00
24207;DHT22;12351;52.284;9.160;2023-06-22T05:13:14;20.30;1.00
24207;DHT22;12351;52.284;9.160;2023-06-22T05:16:02;20.40;1.00
24207;DHT22;12351;52.284;9.160;2023-06-22T05:18:51;20.40;1.00
24207;DHT22;12351;52.284;9.160;2023-06-22T05:21:40;20.40;1.00
24207;DHT22;12351;52.284;9.160;2023-06-22T05:24:28;20.50;1.00
24207;DHT22;12351;52.284;9.160;2023-06-22T05:27:16;20.50;1.00
24207;DHT22;12351;52.284;9.160;2023-06-22T05:30:04;20.50;1.00
24207;DHT22;12351;52.284;9.160;2023-06-22T05:32:51;20.50;1.00
24207;DHT22;12351;52.284;9.160;2023-06-22T05:35:40;20.60;1.00
24207;DHT22;12351;52.284;9.160;2023-06-22T05:38:28;20.60;1.00
24207;DHT22;12351;52.284;9.160;2023-06-22T05:41:15;20.70;1.00
24207;DHT22;12351;52.284;9.160;2023-06-22T05:44:03;20.70;1.00
24207;DHT22;12351;52.284;9.160;2023-06-22T05:46:52;20.70;1.00
24207;DHT22;12351;52.284;9.160;2023-06-22T05:49:40;20.80;1.00
24207;DHT22;12351;52.284;9.160;2023-06-22T05:52:28;20.90;1.00
24207;DHT22;12351;52.284;9.160;2023-06-22T05:55:16;21.00;1.00
24207;DHT22;12351;52.284;9.160;2023-06-22T05:58:05;21.20;1.00
24207;DHT22;12351;52.284;9.160;2023-06-22T06:00:53;21.30;1.00
24207;DHT22;12351;52.284;9.160;2023-06-22T06:03:41;21.40;1.00
24207;DHT22;12351;52.284;9.160;2023-06-22T06:06:28;21.40;1.00
24207;DHT22;12351;52.284;9.160;2023-06-22T06:09:16;21.40;1.00
24207;DHT22;12351;52.284;9.160;2023-06-22T06:12:04;21.50;1.00
24207;DHT22;12351;52.284;9.160;2023-06-22T06:14:51;21.50;1.00
24207;DHT22;12351;52.284;9.160;2023-06-22T06:20:30;21.60;1.00
24207;DHT22;12351;52.284;9.160;2023-06-22T06:23:18;21.70;1.00
24207;DHT22;12351;52.284;9.160;2023-06-22T06:26:05;21.70;1.00
24207;DHT22;12351;52.284;9.160;2023-06-22T06:28:53;21.70;1.00
24207;DHT22;12351;52.284;9.160;2023-06-22T06:31:42;21.60;1.00
24207;DHT22;12351;52.284;9.160;2023-06-22T06:34:30;21.70;1.00
24207;DHT22;12351;52.284;9.160;2023-06-22T06:37:18;21.70;1.00
24207;DHT22;12351;52.284;9.160;2023-06-22T06:40:07;21.90;1.00
24207;DHT22;12351;52.284;9.160;2023-06-22T06:42:57;21.80;1.00
24207;DHT22;12351;52.284;9.160;2023-06-22T06:45:44;22.10;1.00
24207;DHT22;12351;52.284;9.160;2023-06-22T06:48:32;22.20;1.00
24207;DHT22;12351;52.284;9.160;2023-06-22T06:51:22;22.30;1.00
24207;DHT22;12351;52.284;9.160;2023-06-22T06:54:09;22.40;1.00
24207;DHT22;12351;52.284;9.160;2023-06-22T06:56:56;22.50;1.00
24207;DHT22;12351;52.284;9.160;2023-06-22T06:59:44;22.60;1.00
24207;DHT22;12351;52.284;9.160;2023-06-22T07:02:32;22.80;1.00
24207;DHT22;12351;52.284;9.160;2023-06-22T07:05:19;22.90;1.00
24207;DHT22;12351;52.284;9.160;2023-06-22T07:08:07;23.00;1.00
24207;DHT22;12351;52.284;9.160;2023-06-22T07:10:54;23.20;1.00
24207;DHT22;12351;52.284;9.160;2023-06-22T07:13:42;23.20;1.00
24207;DHT22;12351;52.284;9.160;2023-06-22T07:16:29;23.40;1.00
24207;DHT22;12351;52.284;9.160;2023-06-22T07:22:08;23.70;1.00
24207;DHT22;12351;52.284;9.160;2023-06-22T07:24:56;23.60;1.00
24207;DHT22;12351;52.284;9.160;2023-06-22T07:27:46;23.70;1.00
24207;DHT22;12351;52.284;9.160;2023-06-22T07:30:34;23.60;1.00
24207;DHT22;12351;52.284;9.160;2023-06-22T07:33:21;23.60;1.00
24207;DHT22;12351;52.284;9.160;2023-06-22T07:36:09;23.90;1.00
24207;DHT22;12351;52.284;9.160;2023-06-22T07:38:57;23.90;1.00
24207;DHT22;12351;52.284;9.160;2023-06-22T07:41:45;24.00;1.00
24207;DHT22;12351;52.284;9.160;2023-06-22T07:44:32;24.10;1.00
24207;DHT22;12351;52.284;9.160;2023-06-22T07:47:20;24.20;1.00
24207;DHT22;12351;52.284;9.160;2023-06-22T07:52:59;24.10;99.90
24207;DHT22;12351;52.284;9.160;2023-06-22T07:55:47;24.20;99.90
24207;DHT22;12351;52.284;9.160;2023-06-22T07:58:36;24.30;99.90
24207;DHT22;12351;52.284;9.160;2023-06-22T08:01:24;24.40;99.90
24207;DHT22;12351;52.284;9.160;2023-06-22T08:04:11;24.50;99.90
24207;DHT22;12351;52.284;9.160;2023-06-22T08:07:00;24.40;99.90
24207;DHT22;12351;52.284;9.160;2023-06-22T08:09:49;24.50;99.90
24207;DHT22;12351;52.284;9.160;2023-06-22T08:12:37;24.50;99.90
24207;DHT22;12351;52.284;9.160;2023-06-22T08:15:28;24.60;99.90
24207;DHT22;12351;52.284;9.160;2023-06-22T08:18:16;24.60;99.90
24207;DHT22;12351;52.284;9.160;2023-06-22T08:21:04;24.60;99.90
24207;DHT22;12351;52.284;9.160;2023-06-22T08:23:53;24.60;99.90
24207;DHT22;12351;52.284;9.160;2023-06-22T08:26:39;24.60;99.90
24207;DHT22;12351;52.284;9.160;2023-06-22T08:29:27;24.70;99.90
24207;DHT22;12351;52.284;9.160;2023-06-22T08:32:15;24.80;99.90
24207;DHT22;12351;52.284;9.160;2023-06-22T08:35:02;24.80;99.90
24207;DHT22;12351;52.284;9.160;2023-06-22T08:37:54;24.80;99.90
24207;DHT22;12351;52.284;9.160;2023-06-22T08:40:41;24.90;99.90
24207;DHT22;12351;52.284;9.160;2023-06-22T08:43:28;24.80;99.90
24207;DHT22;12351;52.284;9.160;2023-06-22T08:46:16;24.80;99.90
24207;DHT22;12351;52.284;9.160;2023-06-22T08:49:05;24.80;99.90
24207;DHT22;12351;52.284;9.160;2023-06-22T08:51:53;24.90;99.90
24207;DHT22;12351;52.284;9.160;2023-06-22T08:54:41;24.90;99.90
24207;DHT22;12351;52.284;9.160;2023-06-22T08:57:29;24.90;99.90
24207;DHT22;12351;52.284;9.160;2023-06-22T09:00:17;25.00;98.50
24207;DHT22;12351;52.284;9.160;2023-06-22T09:03:06;25.50;46.40
24207;DHT22;12351;52.284;9.160;2023-06-22T09:05:53;26.20;1.00
24207;DHT22;12351;52.284;9.160;2023-06-22T09:08:41;26.60;99.90
24207;DHT22;12351;52.284;9.160;2023-06-22T09:11:29;27.20;1.00
24207;DHT22;12351;52.284;9.160;2023-06-22T09:14:18;27.20;99.90
24207;DHT22;12351;52.284;9.160;2023-06-22T09:17:06;27.30;1.00
24207;DHT22;12351;52.284;9.160;2023-06-22T09:19:54;27.80;99.90
24207;DHT22;12351;52.284;9.160;2023-06-22T09:22:42;27.40;1.00
24207;DHT22;12351;52.284;9.160;2023-06-22T09:25:29;27.60;1.00
24207;DHT22;12351;52.284;9.160;2023-06-22T09:28:17;28.30;1.00
24207;DHT22;12351;52.284;9.160;2023-06-22T09:31:05;28.30;96.70
24207;DHT22;12351;52.284;9.160;2023-06-22T09:33:56;28.30;99.90
24207;DHT22;12351;52.284;9.160;2023-06-22T09:36:43;28.60;99.90
24207;DHT22;12351;52.284;9.160;2023-06-22T09:39:30;28.90;46.80
24207;DHT22;12351;52.284;9.160;2023-06-22T09:42:18;28.90;1.00
24207;DHT22;12351;52.284;9.160;2023-06-22T09:45:07;29.10;99.90
24207;DHT22;12351;52.284;9.160;2023-06-22T09:47:56;29.00;1.00
24207;DHT22;12351;52.284;9.160;2023-06-22T09:50:42;29.10;1.00
24207;DHT22;12351;52.284;9.160;2023-06-22T09:53:30;29.30;99.90
24207;DHT22;12351;52.284;9.160;2023-06-22T09:56:18;29.10;99.90
24207;DHT22;12351;52.284;9.160;2023-06-22T09:59:05;28.70;99.90
24207;DHT22;12351;52.284;9.160;2023-06-22T10:01:54;28.70;99.90
24207;DHT22;12351;52.284;9.160;2023-06-22T10:04:41;28.70;99.90
24207;DHT22;12351;52.284;9.160;2023-06-22T10:07:29;28.70;99.90
24207;DHT22;12351;52.284;9.160;2023-06-22T10:10:17;28.90;76.60
24207;DHT22;12351;52.284;9.160;2023-06-22T10:13:08;29.30;99.90
24207;DHT22;12351;52.284;9.160;2023-06-22T10:15:57;29.10;23.90
24207;DHT22;12351;52.284;9.160;2023-06-22T10:18:43;29.10;99.90
24207;DHT22;12351;52.284;9.160;2023-06-22T10:21:34;28.50;99.90
24207;DHT22;12351;52.284;9.160;2023-06-22T10:24:22;28.50;1.00
24207;DHT22;12351;52.284;9.160;2023-06-22T10:27:09;28.80;99.90
24207;DHT22;12351;52.284;9.160;2023-06-22T10:29:56;29.00;99.90
24207;DHT22;12351;52.284;9.160;2023-06-22T10:32:43;29.00;99.90
24207;DHT22;12351;52.284;9.160;2023-06-22T10:35:31;28.90;99.90
24207;DHT22;12351;52.284;9.160;2023-06-22T10:38:19;29.20;99.90
24207;DHT22;12351;52.284;9.160;2023-06-22T10:41:06;29.40;99.90
24207;DHT22;12351;52.284;9.160;2023-06-22T10:43:53;29.50;99.90
24207;DHT22;12351;52.284;9.160;2023-06-22T10:46:40;29.20;99.70
24207;DHT22;12351;52.284;9.160;2023-06-22T10:49:28;29.20;99.90
24207;DHT22;12351;52.284;9.160;2023-06-22T10:52:16;29.20;99.90
24207;DHT22;12351;52.284;9.160;2023-06-22T10:55:04;28.90;99.90
24207;DHT22;12351;52.284;9.160;2023-06-22T10:57:51;29.30;99.90
24207;DHT22;12351;52.284;9.160;2023-06-22T11:00:39;29.30;99.90
24207;DHT22;12351;52.284;9.160;2023-06-22T11:03:26;29.50;99.90
24207;DHT22;12351;52.284;9.160;2023-06-22T11:06:14;29.60;99.90
24207;DHT22;12351;52.284;9.160;2023-06-22T11:09:02;29.70;61.80
24207;DHT22;12351;52.284;9.160;2023-06-22T11:11:51;30.00;57.00
24207;DHT22;12351;52.284;9.160;2023-06-22T11:14:39;30.00;35.80
24207;DHT22;12351;52.284;9.160;2023-06-22T11:17:27;30.10;1.00
24207;DHT22;12351;52.284;9.160;2023-06-22T11:20:15;30.00;1.00
24207;DHT22;12351;52.284;9.160;2023-06-22T11:23:02;30.20;1.00
24207;DHT22;12351;52.284;9.160;2023-06-22T11:25:50;30.20;1.00
24207;DHT22;12351;52.284;9.160;2023-06-22T11:28:37;30.20;1.00
24207;DHT22;12351;52.284;9.160;2023-06-22T11:31:25;30.30;1.00
24207;DHT22;12351;52.284;9.160;2023-06-22T11:34:13;29.50;1.00
24207;DHT22;12351;52.284;9.160;2023-06-22T11:37:00;30.00;1.00
24207;DHT22;12351;52.284;9.160;2023-06-22T11:39:47;30.00;1.00
24207;DHT22;12351;52.284;9.160;2023-06-22T11:42:36;30.00;1.00
24207;DHT22;12351;52.284;9.160;2023-06-22T11:45:24;29.60;1.00
24207;DHT22;12351;52.284;9.160;2023-06-22T11:48:11;29.40;1.00
24207;DHT22;12351;52.284;9.160;2023-06-22T11:50:59;29.80;1.00
24207;DHT22;12351;52.284;9.160;2023-06-22T11:53:47;30.00;1.00
24207;DHT22;12351;52.284;9.160;2023-06-22T11:56:34;30.10;1.00
24207;DHT22;12351;52.284;9.160;2023-06-22T11:59:22;30.10;1.00
24207;DHT22;12351;52.284;9.160;2023-06-22T12:02:10;30.00;1.00
24207;DHT22;12351;52.284;9.160;2023-06-22T12:04:57;29.80;1.00
24207;DHT22;12351;52.284;9.160;2023-06-22T12:07:45;29.60;1.00
24207;DHT22;12351;52.284;9.160;2023-06-22T12:10:32;29.50;1.00
24207;DHT22;12351;52.284;9.160;2023-06-22T12:13:21;29.50;1.00
24207;DHT22;12351;52.284;9.160;2023-06-22T12:16:08;29.30;1.00
24207;DHT22;12351;52.284;9.160;2023-06-22T12:18:55;29.60;1.00
24207;DHT22;12351;52.284;9.160;2023-06-22T12:21:43;29.60;1.00
24207;DHT22;12351;52.284;9.160;2023-06-22T12:24:32;29.60;1.00
24207;DHT22;12351;52.284;9.160;2023-06-22T12:27:20;29.60;1.00
24207;DHT22;12351;52.284;9.160;2023-06-22T12:30:09;29.60;1.00
24207;DHT22;12351;52.284;9.160;2023-06-22T12:32:57;29.90;1.00
24207;DHT22;12351;52.284;9.160;2023-06-22T12:35:45;29.90;1.00
24207;DHT22;12351;52.284;9.160;2023-06-22T12:38:34;30.00;1.00
24207;DHT22;12351;52.284;9.160;2023-06-22T12:41:21;29.50;1.00
24207;DHT22;12351;52.284;9.160;2023-06-22T12:44:08;29.10;1.00
24207;DHT22;12351;52.284;9.160;2023-06-22T12:46:57;29.20;1.00
24207;DHT22;12351;52.284;9.160;2023-06-22T12:49:44;29.20;1.00
24207;DHT22;12351;52.284;9.160;2023-06-22T12:52:32;29.20;1.00
24207;DHT22;12351;52.284;9.160;2023-06-22T12:55:19;28.70;1.00
24207;DHT22;12351;52.284;9.160;2023-06-22T12:58:07;28.90;1.00
24207;DHT22;12351;52.284;9.160;2023-06-22T13:00:56;29.30;1.00
24207;DHT22;12351;52.284;9.160;2023-06-22T13:03:44;28.80;1.00
24207;DHT22;12351;52.284;9.160;2023-06-22T13:06:31;29.00;1.00
24207;DHT22;12351;52.284;9.160;2023-06-22T13:09:19;29.00;1.00
24207;DHT22;12351;52.284;9.160;2023-06-22T13:12:08;29.10;1.00
24207;DHT22;12351;52.284;9.160;2023-06-22T13:14:56;29.20;1.00
24207;DHT22;12351;52.284;9.160;2023-06-22T13:17:43;29.20;99.90
24207;DHT22;12351;52.284;9.160;2023-06-22T13:20:31;29.30;1.00
24207;DHT22;12351;52.284;9.160;2023-06-22T13:23:19;29.30;1.00
24207;DHT22;12351;52.284;9.160;2023-06-22T13:26:07;29.30;1.00
24207;DHT22;12351;52.284;9.160;2023-06-22T13:28:56;29.40;99.90
24207;DHT22;12351;52.284;9.160;2023-06-22T13:31:43;29.40;1.00
24207;DHT22;12351;52.284;9.160;2023-06-22T13:34:31;29.40;1.00
24207;DHT22;12351;52.284;9.160;2023-06-22T13:37:18;29.30;1.00
24207;DHT22;12351;52.284;9.160;2023-06-22T13:40:07;29.20;99.90
24207;DHT22;12351;52.284;9.160;2023-06-22T13:42:54;29.00;1.00
24207;DHT22;12351;52.284;9.160;2023-06-22T13:45:43;29.10;99.90
24207;DHT22;12351;52.284;9.160;2023-06-22T13:48:30;29.10;99.90
24207;DHT22;12351;52.284;9.160;2023-06-22T13:51:18;29.00;1.00
24207;DHT22;12351;52.284;9.160;2023-06-22T13:54:06;29.20;99.90
24207;DHT22;12351;52.284;9.160;2023-06-22T13:56:53;29.00;99.90
24207;DHT22;12351;52.284;9.160;2023-06-22T13:59:42;28.90;99.90
24207;DHT22;12351;52.284;9.160;2023-06-22T14:02:30;28.60;1.00
24207;DHT22;12351;52.284;9.160;2023-06-22T14:05:17;28.40;1.00
24207;DHT22;12351;52.284;9.160;2023-06-22T14:08:05;28.10;1.00
24207;DHT22;12351;52.284;9.160;2023-06-22T14:10:51;27.90;99.90
24207;DHT22;12351;52.284;9.160;2023-06-22T14:13:41;27.70;1.00
24207;DHT22;12351;52.284;9.160;2023-06-22T14:16:29;27.60;99.90
24207;DHT22;12351;52.284;9.160;2023-06-22T14:19:18;27.50;99.90
24207;DHT22;12351;52.284;9.160;2023-06-22T14:22:05;27.40;99.90
24207;DHT22;12351;52.284;9.160;2023-06-22T14:24:53;27.30;1.00
24207;DHT22;12351;52.284;9.160;2023-06-22T14:27:42;27.20;1.00
24207;DHT22;12351;52.284;9.160;2023-06-22T14:30:31;27.10;1.00
24207;DHT22;12351;52.284;9.160;2023-06-22T14:33:18;26.90;1.00
24207;DHT22;12351;52.284;9.160;2023-06-22T14:36:06;26.90;1.00
24207;DHT22;12351;52.284;9.160;2023-06-22T14:38:54;26.80;1.00
24207;DHT22;12351;52.284;9.160;2023-06-22T14:41:42;26.60;1.00
24207;DHT22;12351;52.284;9.160;2023-06-22T14:44:30;26.50;1.00
24207;DHT22;12351;52.284;9.160;2023-06-22T14:47:18;26.30;1.00
24207;DHT22;12351;52.284;9.160;2023-06-22T14:50:07;26.20;1.00
24207;DHT22;12351;52.284;9.160;2023-06-22T14:52:54;26.10;1.00
24207;DHT22;12351;52.284;9.160;2023-06-22T14:55:42;26.10;1.00
24207;DHT22;12351;52.284;9.160;2023-06-22T14:58:31;26.10;1.00
24207;DHT22;12351;52.284;9.160;2023-06-22T15:01:20;26.00;1.00
24207;DHT22;12351;52.284;9.160;2023-06-22T15:04:08;25.80;1.00
24207;DHT22;12351;52.284;9.160;2023-06-22T15:06:56;25.70;1.00
24207;DHT22;12351;52.284;9.160;2023-06-22T15:09:44;25.60;1.00
24207;DHT22;12351;52.284;9.160;2023-06-22T15:12:31;25.50;1.00
24207;DHT22;12351;52.284;9.160;2023-06-22T15:15:20;25.50;1.00
24207;DHT22;12351;52.284;9.160;2023-06-22T15:18:07;25.40;1.00
24207;DHT22;12351;52.284;9.160;2023-06-22T15:20:54;25.20;1.00
24207;DHT22;12351;52.284;9.160;2023-06-22T15:23:42;25.20;1.00
24207;DHT22;12351;52.284;9.160;2023-06-22T15:26:30;25.10;1.00
24207;DHT22;12351;52.284;9.160;2023-06-22T15:29:17;25.00;1.00
24207;DHT22;12351;52.284;9.160;2023-06-22T15:32:06;24.80;1.00
24207;DHT22;12351;52.284;9.160;2023-06-22T15:34:53;24.70;1.00
24207;DHT22;12351;52.284;9.160;2023-06-22T15:37:40;24.60;1.00
24207;DHT22;12351;52.284;9.160;2023-06-22T15:40:28;24.60;1.00
24207;DHT22;12351;52.284;9.160;2023-06-22T15:43:16;24.20;1.00
24207;DHT22;12351;52.284;9.160;2023-06-22T15:46:03;23.90;11.00
24207;DHT22;12351;52.284;9.160;2023-06-22T15:48:49;24.10;8.90
24207;DHT22;12351;52.284;9.160;2023-06-22T15:51:36;24.10;2.20
24207;DHT22;12351;52.284;9.160;2023-06-22T15:54:25;24.00;1.00
24207;DHT22;12351;52.284;9.160;2023-06-22T15:57:12;24.00;1.00
24207;DHT22;12351;52.284;9.160;2023-06-22T16:00:00;24.00;1.00
24207;DHT22;12351;52.284;9.160;2023-06-22T16:02:48;24.00;1.00
24207;DHT22;12351;52.284;9.160;2023-06-22T16:05:35;23.90;1.00
24207;DHT22;12351;52.284;9.160;2023-06-22T16:08:24;23.60;1.00
24207;DHT22;12351;52.284;9.160;2023-06-22T16:11:12;23.70;24.20
24207;DHT22;12351;52.284;9.160;2023-06-22T16:14:00;23.60;87.60
24207;DHT22;12351;52.284;9.160;2023-06-22T16:16:46;23.60;97.50
24207;DHT22;12351;52.284;9.160;2023-06-22T16:19:34;23.60;99.90
24207;DHT22;12351;52.284;9.160;2023-06-22T16:22:22;23.60;99.90
24207;DHT22;12351;52.284;9.160;2023-06-22T16:25:10;23.50;99.90
24207;DHT22;12351;52.284;9.160;2023-06-22T16:27:57;23.50;99.90
24207;DHT22;12351;52.284;9.160;2023-06-22T16:30:44;23.50;99.90
24207;DHT22;12351;52.284;9.160;2023-06-22T16:33:32;23.50;99.90
24207;DHT22;12351;52.284;9.160;2023-06-22T16:36:19;23.30;99.90
24207;DHT22;12351;52.284;9.160;2023-06-22T16:39:07;23.40;99.90
24207;DHT22;12351;52.284;9.160;2023-06-22T16:41:54;23.40;99.90
24207;DHT22;12351;52.284;9.160;2023-06-22T16:44:42;23.30;99.90
24207;DHT22;12351;52.284;9.160;2023-06-22T16:47:30;23.50;99.90
24207;DHT22;12351;52.284;9.160;2023-06-22T16:50:18;23.40;99.90
24207;DHT22;12351;52.284;9.160;2023-06-22T16:53:06;23.30;99.90
24207;DHT22;12351;52.284;9.160;2023-06-22T16:55:57;23.30;99.90
24207;DHT22;12351;52.284;9.160;2023-06-22T16:58:43;23.30;99.90
24207;DHT22;12351;52.284;9.160;2023-06-22T17:01:34;23.40;99.90
24207;DHT22;12351;52.284;9.160;2023-06-22T17:04:24;23.40;99.90
24207;DHT22;12351;52.284;9.160;2023-06-22T17:07:14;23.40;99.90
24207;DHT22;12351;52.284;9.160;2023-06-22T17:10:03;23.40;99.90
24207;DHT22;12351;52.284;9.160;2023-06-22T17:12:51;23.20;99.90
24207;DHT22;12351;52.284;9.160;2023-06-22T17:15:41;23.20;99.90
24207;DHT22;12351;52.284;9.160;2023-06-22T17:18:31;23.20;99.90
24207;DHT22;12351;52.284;9.160;2023-06-22T17:21:22;23.00;99.90
24207;DHT22;12351;52.284;9.160;2023-06-22T17:24:12;23.00;99.90
24207;DHT22;12351;52.284;9.160;2023-06-22T17:27:00;22.90;99.90
24207;DHT22;12351;52.284;9.160;2023-06-22T17:29:49;23.10;99.90
24207;DHT22;12351;52.284;9.160;2023-06-22T17:32:38;23.10;99.90
24207;DHT22;12351;52.284;9.160;2023-06-22T17:35:26;23.10;99.90
24207;DHT22;12351;52.284;9.160;2023-06-22T17:41:05;22.80;99.90
24207;DHT22;12351;52.284;9.160;2023-06-22T17:43:53;22.80;99.90
24207;DHT22;12351;52.284;9.160;2023-06-22T17:46:42;22.90;99.90
24207;DHT22;12351;52.284;9.160;2023-06-22T17:49:30;22.90;99.90
24207;DHT22;12351;52.284;9.160;2023-06-22T17:52:18;22.90;99.90
24207;DHT22;12351;52.284;9.160;2023-06-22T17:55:07;22.80;99.90
24207;DHT22;12351;52.284;9.160;2023-06-22T17:57:56;22.80;99.90
24207;DHT22;12351;52.284;9.160;2023-06-22T18:00:43;22.80;99.90
24207;DHT22;12351;52.284;9.160;2023-06-22T18:03:30;22.60;99.90
24207;DHT22;12351;52.284;9.160;2023-06-22T18:06:18;22.70;99.90
24207;DHT22;12351;52.284;9.160;2023-06-22T18:09:07;22.70;99.90
24207;DHT22;12351;52.284;9.160;2023-06-22T18:11:56;22.60;99.90